sensor_id;sensor_type;location;lat;lon;timestamp;P1;durP1;ratioP1;P2;durP2;ratioP2
21943;SDS011;11136;48.778;9.126;2023-01-25T00:01:39;24.33;;;14.55;;
21943;SDS011;11136;48.778;9.126;2023-01-25T00:04:05;20.00;;;13.05;;
21943;SDS011;11136;48.778;9.126;2023-01-25T00:06:31;27.27;;;15.35;;
21943;SDS011;11136;48.778;9.126;2023-01-25T00:08:58;25.83;;;14.25;;
21943;SDS011;11136;48.778;9.126;2023-01-25T00:11:24;22.42;;;13.70;;
21943;SDS011;11136;48.778;9.126;2023-01-25T00:13:54;23.60;;;13.65;;
21943;SDS011;11136;48.778;9.126;2023-01-25T00:16:20;25.15;;;14.82;;
21943;SDS011;11136;48.778;9.126;2023-01-25T00:18:47;26.42;;;15.75;;
21943;SDS011;11136;48.778;9.126;2023-01-25T00:21:13;27.27;;;15.93;;
21943;SDS011;11136;48.778;9.126;2023-01-25T00:23:40;24.25;;;14.30;;
21943;SDS011;11136;48.778;9.126;2023-01-25T00:26:06;25.08;;;14.20;;
21943;SDS011;11136;48.778;9.126;2023-01-25T00:28:32;28.40;;;14.68;;
21943;SDS011;11136;48.778;9.126;2023-01-25T00:30:59;22.80;;;14.63;;
21943;SDS011;11136;48.778;9.126;2023-01-25T00:35:57;24.63;;;14.20;;
21943;SDS011;11136;48.778;9.126;2023-01-25T00:38:27;25.92;;;15.80;;
21943;SDS011;11136;48.778;9.126;2023-01-25T00:40:53;24.23;;;14.70;;
21943;SDS011;11136;48.778;9.126;2023-01-25T00:43:19;22.52;;;14.20;;
21943;SDS011;11136;48.778;9.126;2023-01-25T00:45:45;28.25;;;13.48;;
21943;SDS011;11136;48.778;9.126;2023-01-25T00:48:11;22.15;;;13.65;;
21943;SDS011;11136;48.778;9.126;2023-01-25T00:50:37;26.67;;;15.27;;
21943;SDS011;11136;48.778;9.126;2023-01-25T00:53:03;27.92;;;14.88;;
21943;SDS011;11136;48.778;9.126;2023-01-25T00:55:30;24.17;;;14.07;;
21943;SDS011;11136;48.778;9.126;2023-01-25T00:57:56;25.88;;;14.70;;
21943;SDS011;11136;48.778;9.126;2023-01-25T01:00:22;27.33;;;16.13;;
21943;SDS011;11136;48.778;9.126;2023-01-25T01:02:48;24.30;;;15.10;;
21943;SDS011;11136;48.778;9.126;2023-01-25T01:05:14;24.70;;;14.32;;
21943;SDS011;11136;48.778;9.126;2023-01-25T01:07:40;23.63;;;15.02;;
21943;SDS011;11136;48.778;9.126;2023-01-25T01:10:06;21.92;;;13.95;;
21943;SDS011;11136;48.778;9.126;2023-01-25T01:12:32;24.58;;;14.52;;
21943;SDS011;11136;48.778;9.126;2023-01-25T01:14:58;25.38;;;15.05;;
21943;SDS011;11136;48.778;9.126;2023-01-25T01:17:24;23.67;;;13.77;;
21943;SDS011;11136;48.778;9.126;2023-01-25T01:19:50;26.70;;;15.43;;
21943;SDS011;11136;48.778;9.126;2023-01-25T01:22:16;23.58;;;13.13;;
21943;SDS011;11136;48.778;9.126;2023-01-25T01:24:42;26.17;;;15.63;;
21943;SDS011;11136;48.778;9.126;2023-01-25T01:27:08;25.10;;;14.70;;
21943;SDS011;11136;48.778;9.126;2023-01-25T01:29:34;23.50;;;14.95;;
21943;SDS011;11136;48.778;9.126;2023-01-25T01:32:00;23.20;;;13.90;;
21943;SDS011;11136;48.778;9.126;2023-01-25T01:34:26;27.20;;;13.77;;
21943;SDS011;11136;48.778;9.126;2023-01-25T01:36:52;28.15;;;15.07;;
21943;SDS011;11136;48.778;9.126;2023-01-25T01:39:18;24.48;;;14.63;;
21943;SDS011;11136;48.778;9.126;2023-01-25T01:41:44;25.77;;;14.18;;
21943;SDS011;11136;48.778;9.126;2023-01-25T01:44:20;25.00;;;14.15;;
21943;SDS011;11136;48.778;9.126;2023-01-25T01:46:52;24.77;;;14.63;;
21943;SDS011;11136;48.778;9.126;2023-01-25T01:49:21;24.50;;;13.95;;
21943;SDS011;11136;48.778;9.126;2023-01-25T01:51:51;23.65;;;13.27;;
21943;SDS011;11136;48.778;9.126;2023-01-25T01:54:31;21.00;;;13.63;;
21943;SDS011;11136;48.778;9.126;2023-01-25T01:56:59;22.83;;;14.23;;
21943;SDS011;11136;48.778;9.126;2023-01-25T01:59:30;21.05;;;13.68;;
21943;SDS011;11136;48.778;9.126;2023-01-25T02:01:58;23.77;;;14.50;;
21943;SDS011;11136;48.778;9.126;2023-01-25T02:04:24;22.30;;;13.90;;
21943;SDS011;11136;48.778;9.126;2023-01-25T02:06:53;23.40;;;13.02;;
21943;SDS011;11136;48.778;9.126;2023-01-25T02:09:21;23.50;;;13.60;;
21943;SDS011;11136;48.778;9.126;2023-01-25T02:11:48;23.30;;;13.45;;
21943;SDS011;11136;48.778;9.126;2023-01-25T02:14:15;20.83;;;12.43;;
21943;SDS011;11136;48.778;9.126;2023-01-25T02:16:41;21.60;;;13.95;;
21943;SDS011;11136;48.778;9.126;2023-01-25T02:19:08;23.80;;;13.10;;
21943;SDS011;11136;48.778;9.126;2023-01-25T02:21:38;24.38;;;13.60;;
21943;SDS011;11136;48.778;9.126;2023-01-25T02:24:10;23.20;;;13.77;;
21943;SDS011;11136;48.778;9.126;2023-01-25T02:26:38;28.90;;;13.13;;
21943;SDS011;11136;48.778;9.126;2023-01-25T02:29:05;24.08;;;13.82;;
21943;SDS011;11136;48.778;9.126;2023-01-25T02:31:32;23.40;;;13.60;;
21943;SDS011;11136;48.778;9.126;2023-01-25T02:33:58;23.35;;;14.20;;
21943;SDS011;11136;48.778;9.126;2023-01-25T02:36:25;26.15;;;14.48;;
21943;SDS011;11136;48.778;9.126;2023-01-25T02:38:53;25.15;;;13.63;;
21943;SDS011;11136;48.778;9.126;2023-01-25T02:41:26;22.73;;;14.45;;
21943;SDS011;11136;48.778;9.126;2023-01-25T02:43:54;24.20;;;14.15;;
21943;SDS011;11136;48.778;9.126;2023-01-25T02:46:22;23.00;;;13.48;;
21943;SDS011;11136;48.778;9.126;2023-01-25T02:48:51;26.00;;;14.27;;
21943;SDS011;11136;48.778;9.126;2023-01-25T02:51:17;24.88;;;14.25;;
21943;SDS011;11136;48.778;9.126;2023-01-25T02:53:43;22.88;;;13.73;;
21943;SDS011;11136;48.778;9.126;2023-01-25T02:56:09;23.38;;;14.13;;
21943;SDS011;11136;48.778;9.126;2023-01-25T02:58:35;24.85;;;13.98;;
21943;SDS011;11136;48.778;9.126;2023-01-25T03:01:01;24.70;;;13.15;;
21943;SDS011;11136;48.778;9.126;2023-01-25T03:03:27;27.65;;;14.40;;
21943;SDS011;11136;48.778;9.126;2023-01-25T03:05:53;27.63;;;14.15;;
21943;SDS011;11136;48.778;9.126;2023-01-25T03:08:19;24.70;;;13.30;;
21943;SDS011;11136;48.778;9.126;2023-01-25T03:10:45;25.92;;;14.32;;
21943;SDS011;11136;48.778;9.126;2023-01-25T03:13:11;23.20;;;13.27;;
21943;SDS011;11136;48.778;9.126;2023-01-25T03:15:37;21.13;;;12.80;;
21943;SDS011;11136;48.778;9.126;2023-01-25T03:18:03;22.00;;;12.45;;
21943;SDS011;11136;48.778;9.126;2023-01-25T03:20:29;20.10;;;12.50;;
21943;SDS011;11136;48.778;9.126;2023-01-25T03:22:55;24.10;;;13.48;;
21943;SDS011;11136;48.778;9.126;2023-01-25T03:25:21;24.20;;;12.77;;
21943;SDS011;11136;48.778;9.126;2023-01-25T03:27:47;21.52;;;12.73;;
21943;SDS011;11136;48.778;9.126;2023-01-25T03:30:13;22.85;;;12.70;;
21943;SDS011;11136;48.778;9.126;2023-01-25T03:32:39;20.13;;;12.25;;
21943;SDS011;11136;48.778;9.126;2023-01-25T03:35:05;19.80;;;11.05;;
21943;SDS011;11136;48.778;9.126;2023-01-25T03:37:31;22.02;;;11.63;;
21943;SDS011;11136;48.778;9.126;2023-01-25T03:39:58;22.27;;;12.52;;
21943;SDS011;11136;48.778;9.126;2023-01-25T03:42:24;23.50;;;12.82;;
21943;SDS011;11136;48.778;9.126;2023-01-25T03:44:50;19.27;;;11.55;;
21943;SDS011;11136;48.778;9.126;2023-01-25T03:47:16;19.60;;;11.85;;
21943;SDS011;11136;48.778;9.126;2023-01-25T03:49:42;22.08;;;12.57;;
21943;SDS011;11136;48.778;9.126;2023-01-25T03:52:08;19.92;;;11.52;;
21943;SDS011;11136;48.778;9.126;2023-01-25T03:54:34;23.65;;;12.55;;
21943;SDS011;11136;48.778;9.126;2023-01-25T03:57:00;22.10;;;12.40;;
21943;SDS011;11136;48.778;9.126;2023-01-25T03:59:27;20.77;;;11.85;;
21943;SDS011;11136;48.778;9.126;2023-01-25T04:01:53;26.17;;;12.20;;
21943;SDS011;11136;48.778;9.126;2023-01-25T04:04:19;23.05;;;12.38;;
21943;SDS011;11136;48.778;9.126;2023-01-25T04:06:45;23.27;;;13.02;;
21943;SDS011;11136;48.778;9.126;2023-01-25T04:09:11;23.70;;;12.80;;
21943;SDS011;11136;48.778;9.126;2023-01-25T04:11:38;25.88;;;12.60;;
21943;SDS011;11136;48.778;9.126;2023-01-25T04:14:04;20.90;;;12.25;;
21943;SDS011;11136;48.778;9.126;2023-01-25T04:16:30;22.13;;;13.57;;
21943;SDS011;11136;48.778;9.126;2023-01-25T04:18:56;20.08;;;11.23;;
21943;SDS011;11136;48.778;9.126;2023-01-25T04:21:22;24.08;;;12.65;;
21943;SDS011;11136;48.778;9.126;2023-01-25T04:23:48;21.63;;;12.55;;
21943;SDS011;11136;48.778;9.126;2023-01-25T04:26:14;20.73;;;11.65;;
21943;SDS011;11136;48.778;9.126;2023-01-25T04:28:40;19.17;;;11.40;;
21943;SDS011;11136;48.778;9.126;2023-01-25T04:31:07;18.48;;;11.60;;
21943;SDS011;11136;48.778;9.126;2023-01-25T04:33:33;24.10;;;13.15;;
21943;SDS011;11136;48.778;9.126;2023-01-25T04:35:59;21.13;;;12.55;;
21943;SDS011;11136;48.778;9.126;2023-01-25T04:38:25;22.52;;;12.52;;
21943;SDS011;11136;48.778;9.126;2023-01-25T04:40:51;18.08;;;11.80;;
21943;SDS011;11136;48.778;9.126;2023-01-25T04:43:18;19.95;;;12.07;;
21943;SDS011;11136;48.778;9.126;2023-01-25T04:45:44;23.73;;;13.15;;
21943;SDS011;11136;48.778;9.126;2023-01-25T04:48:11;20.52;;;11.43;;
21943;SDS011;11136;48.778;9.126;2023-01-25T04:50:38;19.17;;;11.45;;
21943;SDS011;11136;48.778;9.126;2023-01-25T04:53:04;16.67;;;11.10;;
21943;SDS011;11136;48.778;9.126;2023-01-25T04:55:30;22.70;;;11.98;;
21943;SDS011;11136;48.778;9.126;2023-01-25T04:57:58;20.45;;;10.90;;
21943;SDS011;11136;48.778;9.126;2023-01-25T05:00:24;16.88;;;10.50;;
21943;SDS011;11136;48.778;9.126;2023-01-25T05:02:50;18.80;;;10.98;;
21943;SDS011;11136;48.778;9.126;2023-01-25T05:05:16;18.88;;;10.82;;
21943;SDS011;11136;48.778;9.126;2023-01-25T05:07:42;18.48;;;10.65;;
21943;SDS011;11136;48.778;9.126;2023-01-25T05:10:09;21.40;;;11.13;;
21943;SDS011;11136;48.778;9.126;2023-01-25T05:12:35;20.77;;;11.23;;
21943;SDS011;11136;48.778;9.126;2023-01-25T05:15:01;19.20;;;10.75;;
21943;SDS011;11136;48.778;9.126;2023-01-25T05:17:27;18.08;;;11.45;;
21943;SDS011;11136;48.778;9.126;2023-01-25T05:19:53;17.15;;;10.25;;
21943;SDS011;11136;48.778;9.126;2023-01-25T05:22:19;16.60;;;9.45;;
21943;SDS011;11136;48.778;9.126;2023-01-25T05:24:46;19.45;;;11.05;;
21943;SDS011;11136;48.778;9.126;2023-01-25T05:27:13;20.25;;;10.25;;
21943;SDS011;11136;48.778;9.126;2023-01-25T05:29:40;17.95;;;9.85;;
21943;SDS011;11136;48.778;9.126;2023-01-25T05:32:11;19.35;;;9.38;;
21943;SDS011;11136;48.778;9.126;2023-01-25T05:34:38;16.77;;;9.95;;
21943;SDS011;11136;48.778;9.126;2023-01-25T05:37:05;17.95;;;10.38;;
21943;SDS011;11136;48.778;9.126;2023-01-25T05:39:31;18.25;;;10.55;;
21943;SDS011;11136;48.778;9.126;2023-01-25T05:41:57;17.67;;;10.05;;
21943;SDS011;11136;48.778;9.126;2023-01-25T05:44:23;17.30;;;9.98;;
21943;SDS011;11136;48.778;9.126;2023-01-25T05:46:49;17.58;;;10.02;;
21943;SDS011;11136;48.778;9.126;2023-01-25T05:49:15;16.85;;;10.52;;
21943;SDS011;11136;48.778;9.126;2023-01-25T05:51:42;16.27;;;9.68;;
21943;SDS011;11136;48.778;9.126;2023-01-25T05:54:12;16.33;;;9.90;;
21943;SDS011;11136;48.778;9.126;2023-01-25T05:56:39;16.75;;;9.68;;
21943;SDS011;11136;48.778;9.126;2023-01-25T05:59:05;18.17;;;10.30;;
21943;SDS011;11136;48.778;9.126;2023-01-25T06:01:31;18.55;;;10.75;;
21943;SDS011;11136;48.778;9.126;2023-01-25T06:03:57;18.13;;;10.63;;
21943;SDS011;11136;48.778;9.126;2023-01-25T06:06:23;16.48;;;10.13;;
21943;SDS011;11136;48.778;9.126;2023-01-25T06:08:49;17.65;;;10.35;;
21943;SDS011;11136;48.778;9.126;2023-01-25T06:11:16;23.55;;;10.57;;
21943;SDS011;11136;48.778;9.126;2023-01-25T06:13:43;16.60;;;9.13;;
21943;SDS011;11136;48.778;9.126;2023-01-25T06:16:09;16.17;;;10.18;;
21943;SDS011;11136;48.778;9.126;2023-01-25T06:18:35;18.73;;;10.60;;
21943;SDS011;11136;48.778;9.126;2023-01-25T06:21:01;18.98;;;10.90;;
21943;SDS011;11136;48.778;9.126;2023-01-25T06:23:28;18.63;;;9.88;;
21943;SDS011;11136;48.778;9.126;2023-01-25T06:25:57;19.50;;;11.20;;
21943;SDS011;11136;48.778;9.126;2023-01-25T06:28:24;16.15;;;9.65;;
21943;SDS011;11136;48.778;9.126;2023-01-25T06:30:50;15.30;;;9.20;;
21943;SDS011;11136;48.778;9.126;2023-01-25T06:33:16;18.27;;;10.52;;
21943;SDS011;11136;48.778;9.126;2023-01-25T06:35:42;17.27;;;10.32;;
21943;SDS011;11136;48.778;9.126;2023-01-25T06:38:09;17.55;;;9.85;;
21943;SDS011;11136;48.778;9.126;2023-01-25T06:40:35;19.00;;;10.32;;
21943;SDS011;11136;48.778;9.126;2023-01-25T06:43:05;17.83;;;10.57;;
21943;SDS011;11136;48.778;9.126;2023-01-25T06:45:32;21.30;;;10.77;;
21943;SDS011;11136;48.778;9.126;2023-01-25T06:47:58;17.80;;;8.98;;
21943;SDS011;11136;48.778;9.126;2023-01-25T06:50:27;18.45;;;9.27;;
21943;SDS011;11136;48.778;9.126;2023-01-25T06:52:55;18.65;;;11.10;;
21943;SDS011;11136;48.778;9.126;2023-01-25T06:55:23;15.65;;;9.02;;
21943;SDS011;11136;48.778;9.126;2023-01-25T06:57:49;15.85;;;10.50;;
21943;SDS011;11136;48.778;9.126;2023-01-25T07:00:16;15.18;;;9.25;;
21943;SDS011;11136;48.778;9.126;2023-01-25T07:02:42;14.63;;;9.50;;
21943;SDS011;11136;48.778;9.126;2023-01-25T07:05:08;19.73;;;10.43;;
21943;SDS011;11136;48.778;9.126;2023-01-25T07:07:36;18.10;;;10.52;;
21943;SDS011;11136;48.778;9.126;2023-01-25T07:10:03;15.65;;;10.13;;
21943;SDS011;11136;48.778;9.126;2023-01-25T07:12:31;17.80;;;10.05;;
21943;SDS011;11136;48.778;9.126;2023-01-25T07:14:57;18.13;;;10.77;;
21943;SDS011;11136;48.778;9.126;2023-01-25T07:17:23;16.33;;;9.15;;
21943;SDS011;11136;48.778;9.126;2023-01-25T07:19:49;16.50;;;10.00;;
21943;SDS011;11136;48.778;9.126;2023-01-25T07:22:15;14.98;;;10.40;;
21943;SDS011;11136;48.778;9.126;2023-01-25T07:24:41;17.15;;;10.25;;
21943;SDS011;11136;48.778;9.126;2023-01-25T07:27:13;18.98;;;10.75;;
21943;SDS011;11136;48.778;9.126;2023-01-25T07:29:39;16.50;;;10.07;;
21943;SDS011;11136;48.778;9.126;2023-01-25T07:32:05;18.05;;;10.93;;
21943;SDS011;11136;48.778;9.126;2023-01-25T07:34:32;16.10;;;9.73;;
21943;SDS011;11136;48.778;9.126;2023-01-25T07:36:58;15.65;;;10.38;;
21943;SDS011;11136;48.778;9.126;2023-01-25T07:39:24;20.48;;;11.25;;
21943;SDS011;11136;48.778;9.126;2023-01-25T07:41:50;18.40;;;10.05;;
21943;SDS011;11136;48.778;9.126;2023-01-25T07:44:17;20.88;;;10.02;;
21943;SDS011;11136;48.778;9.126;2023-01-25T07:46:43;16.25;;;9.82;;
21943;SDS011;11136;48.778;9.126;2023-01-25T07:49:09;17.20;;;9.32;;
21943;SDS011;11136;48.778;9.126;2023-01-25T07:51:35;15.10;;;9.00;;
21943;SDS011;11136;48.778;9.126;2023-01-25T07:54:02;16.75;;;9.60;;
21943;SDS011;11136;48.778;9.126;2023-01-25T07:56:32;17.33;;;10.30;;
21943;SDS011;11136;48.778;9.126;2023-01-25T07:58:59;18.25;;;10.02;;
21943;SDS011;11136;48.778;9.126;2023-01-25T08:01:27;16.60;;;9.75;;
21943;SDS011;11136;48.778;9.126;2023-01-25T08:03:53;20.58;;;9.43;;
21943;SDS011;11136;48.778;9.126;2023-01-25T08:06:23;15.90;;;9.65;;
21943;SDS011;11136;48.778;9.126;2023-01-25T08:08:51;17.10;;;10.15;;
21943;SDS011;11136;48.778;9.126;2023-01-25T08:11:20;17.90;;;10.32;;
21943;SDS011;11136;48.778;9.126;2023-01-25T08:13:46;17.13;;;10.07;;
21943;SDS011;11136;48.778;9.126;2023-01-25T08:16:14;24.55;;;11.15;;
21943;SDS011;11136;48.778;9.126;2023-01-25T08:18:40;14.38;;;9.32;;
21943;SDS011;11136;48.778;9.126;2023-01-25T08:21:06;17.98;;;10.38;;
21943;SDS011;11136;48.778;9.126;2023-01-25T08:23:32;16.25;;;9.73;;
21943;SDS011;11136;48.778;9.126;2023-01-25T08:26:02;16.80;;;9.55;;
21943;SDS011;11136;48.778;9.126;2023-01-25T08:28:28;16.55;;;9.18;;
21943;SDS011;11136;48.778;9.126;2023-01-25T08:31:03;18.40;;;9.55;;
21943;SDS011;11136;48.778;9.126;2023-01-25T08:33:30;15.73;;;9.45;;
21943;SDS011;11136;48.778;9.126;2023-01-25T08:35:56;17.38;;;10.15;;
21943;SDS011;11136;48.778;9.126;2023-01-25T08:38:22;17.52;;;9.85;;
21943;SDS011;11136;48.778;9.126;2023-01-25T08:40:48;16.52;;;9.98;;
21943;SDS011;11136;48.778;9.126;2023-01-25T08:43:14;15.90;;;10.07;;
21943;SDS011;11136;48.778;9.126;2023-01-25T08:45:40;12.77;;;8.20;;
21943;SDS011;11136;48.778;9.126;2023-01-25T08:48:06;15.93;;;9.50;;
21943;SDS011;11136;48.778;9.126;2023-01-25T08:50:32;16.40;;;9.57;;
21943;SDS011;11136;48.778;9.126;2023-01-25T08:52:58;14.85;;;9.05;;
21943;SDS011;11136;48.778;9.126;2023-01-25T08:55:24;15.43;;;9.52;;
21943;SDS011;11136;48.778;9.126;2023-01-25T08:57:50;15.90;;;9.23;;
21943;SDS011;11136;48.778;9.126;2023-01-25T09:00:16;15.48;;;9.90;;
21943;SDS011;11136;48.778;9.126;2023-01-25T09:02:42;16.75;;;9.88;;
21943;SDS011;11136;48.778;9.126;2023-01-25T09:05:08;13.15;;;8.40;;
21943;SDS011;11136;48.778;9.126;2023-01-25T09:07:34;21.42;;;8.88;;
21943;SDS011;11136;48.778;9.126;2023-01-25T09:10:05;15.68;;;9.35;;
21943;SDS011;11136;48.778;9.126;2023-01-25T09:12:33;13.20;;;7.88;;
21943;SDS011;11136;48.778;9.126;2023-01-25T09:14:59;14.23;;;8.65;;
21943;SDS011;11136;48.778;9.126;2023-01-25T09:17:25;15.25;;;9.05;;
21943;SDS011;11136;48.778;9.126;2023-01-25T09:19:51;15.82;;;8.70;;
21943;SDS011;11136;48.778;9.126;2023-01-25T09:22:17;15.57;;;9.13;;
21943;SDS011;11136;48.778;9.126;2023-01-25T09:24:42;14.38;;;8.05;;
21943;SDS011;11136;48.778;9.126;2023-01-25T09:27:09;14.20;;;8.60;;
21943;SDS011;11136;48.778;9.126;2023-01-25T09:29:34;14.60;;;8.88;;
21943;SDS011;11136;48.778;9.126;2023-01-25T09:32:00;14.50;;;8.75;;
21943;SDS011;11136;48.778;9.126;2023-01-25T09:34:27;15.55;;;9.63;;
21943;SDS011;11136;48.778;9.126;2023-01-25T09:36:53;16.15;;;10.25;;
21943;SDS011;11136;48.778;9.126;2023-01-25T09:39:19;16.60;;;10.52;;
21943;SDS011;11136;48.778;9.126;2023-01-25T09:41:51;16.00;;;10.27;;
21943;SDS011;11136;48.778;9.126;2023-01-25T09:46:54;15.45;;;9.85;;
21943;SDS011;11136;48.778;9.126;2023-01-25T09:49:34;15.35;;;9.82;;
21943;SDS011;11136;48.778;9.126;2023-01-25T09:52:20;15.63;;;9.07;;
21943;SDS011;11136;48.778;9.126;2023-01-25T09:54:50;15.93;;;9.50;;
21943;SDS011;11136;48.778;9.126;2023-01-25T09:59:48;12.43;;;8.38;;
21943;SDS011;11136;48.778;9.126;2023-01-25T10:02:31;14.95;;;9.50;;
21943;SDS011;11136;48.778;9.126;2023-01-25T10:05:07;18.38;;;10.20;;
21943;SDS011;11136;48.778;9.126;2023-01-25T10:07:42;13.73;;;8.95;;
21943;SDS011;11136;48.778;9.126;2023-01-25T10:10:12;14.18;;;9.55;;
21943;SDS011;11136;48.778;9.126;2023-01-25T10:12:42;14.55;;;8.80;;
21943;SDS011;11136;48.778;9.126;2023-01-25T10:15:16;14.00;;;9.05;;
21943;SDS011;11136;48.778;9.126;2023-01-25T10:17:43;17.67;;;9.60;;
21943;SDS011;11136;48.778;9.126;2023-01-25T10:20:22;15.27;;;10.00;;
21943;SDS011;11136;48.778;9.126;2023-01-25T10:23:03;15.80;;;9.45;;
21943;SDS011;11136;48.778;9.126;2023-01-25T10:25:37;17.05;;;10.52;;
21943;SDS011;11136;48.778;9.126;2023-01-25T10:35:51;16.92;;;10.40;;
21943;SDS011;11136;48.778;9.126;2023-01-25T10:38:23;18.95;;;10.43;;
21943;SDS011;11136;48.778;9.126;2023-01-25T10:40:51;19.75;;;9.88;;
21943;SDS011;11136;48.778;9.126;2023-01-25T10:43:19;17.70;;;10.10;;
21943;SDS011;11136;48.778;9.126;2023-01-25T10:45:46;17.70;;;8.95;;
21943;SDS011;11136;48.778;9.126;2023-01-25T10:48:14;16.98;;;9.98;;
21943;SDS011;11136;48.778;9.126;2023-01-25T10:50:43;18.08;;;10.25;;
21943;SDS011;11136;48.778;9.126;2023-01-25T10:53:20;19.77;;;11.38;;
21943;SDS011;11136;48.778;9.126;2023-01-25T10:56:00;17.30;;;10.52;;
21943;SDS011;11136;48.778;9.126;2023-01-25T10:58:28;17.90;;;11.40;;
21943;SDS011;11136;48.778;9.126;2023-01-25T11:00:55;16.23;;;10.52;;
21943;SDS011;11136;48.778;9.126;2023-01-25T11:03:21;18.05;;;11.20;;
21943;SDS011;11136;48.778;9.126;2023-01-25T11:05:53;16.58;;;9.48;;
21943;SDS011;11136;48.778;9.126;2023-01-25T11:10:50;17.33;;;10.32;;
21943;SDS011;11136;48.778;9.126;2023-01-25T11:13:18;17.80;;;11.15;;
21943;SDS011;11136;48.778;9.126;2023-01-25T11:18:29;15.75;;;10.13;;
21943;SDS011;11136;48.778;9.126;2023-01-25T11:21:05;16.38;;;9.32;;
21943;SDS011;11136;48.778;9.126;2023-01-25T11:23:31;17.27;;;10.98;;
21943;SDS011;11136;48.778;9.126;2023-01-25T11:26:17;20.05;;;12.02;;
21943;SDS011;11136;48.778;9.126;2023-01-25T11:28:46;18.20;;;10.75;;
21943;SDS011;11136;48.778;9.126;2023-01-25T11:31:14;16.98;;;10.82;;
21943;SDS011;11136;48.778;9.126;2023-01-25T11:33:40;17.42;;;11.23;;
21943;SDS011;11136;48.778;9.126;2023-01-25T11:46:22;22.10;;;12.25;;
21943;SDS011;11136;48.778;9.126;2023-01-25T11:48:57;17.73;;;11.87;;
21943;SDS011;11136;48.778;9.126;2023-01-25T11:51:27;20.15;;;12.05;;
21943;SDS011;11136;48.778;9.126;2023-01-25T11:56:43;20.23;;;13.10;;
21943;SDS011;11136;48.778;9.126;2023-01-25T12:06:54;20.83;;;11.98;;
21943;SDS011;11136;48.778;9.126;2023-01-25T12:22:24;20.65;;;12.05;;
21943;SDS011;11136;48.778;9.126;2023-01-25T12:24:59;20.75;;;12.35;;
21943;SDS011;11136;48.778;9.126;2023-01-25T12:30:15;21.48;;;12.63;;
21943;SDS011;11136;48.778;9.126;2023-01-25T12:32:48;20.70;;;12.10;;
21943;SDS011;11136;48.778;9.126;2023-01-25T12:35:38;22.45;;;13.15;;
21943;SDS011;11136;48.778;9.126;2023-01-25T12:38:02;21.08;;;12.77;;
21943;SDS011;11136;48.778;9.126;2023-01-25T12:43:25;23.33;;;13.85;;
21943;SDS011;11136;48.778;9.126;2023-01-25T12:45:53;23.50;;;12.77;;
21943;SDS011;11136;48.778;9.126;2023-01-25T12:48:21;25.58;;;13.50;;
21943;SDS011;11136;48.778;9.126;2023-01-25T12:50:54;20.73;;;12.13;;
21943;SDS011;11136;48.778;9.126;2023-01-25T12:53:25;23.30;;;14.05;;
21943;SDS011;11136;48.778;9.126;2023-01-25T13:08:20;22.33;;;13.77;;
21943;SDS011;11136;48.778;9.126;2023-01-25T13:10:53;23.63;;;13.45;;
21943;SDS011;11136;48.778;9.126;2023-01-25T13:13:23;21.00;;;12.80;;
21943;SDS011;11136;48.778;9.126;2023-01-25T13:15:49;22.90;;;13.38;;
21943;SDS011;11136;48.778;9.126;2023-01-25T13:20:53;21.00;;;13.50;;
21943;SDS011;11136;48.778;9.126;2023-01-25T13:23:30;20.70;;;12.67;;
21943;SDS011;11136;48.778;9.126;2023-01-25T13:28:43;22.33;;;13.32;;
21943;SDS011;11136;48.778;9.126;2023-01-25T13:31:28;25.52;;;13.82;;
21943;SDS011;11136;48.778;9.126;2023-01-25T13:33:56;22.17;;;13.38;;
21943;SDS011;11136;48.778;9.126;2023-01-25T13:44:28;23.55;;;14.20;;
21943;SDS011;11136;48.778;9.126;2023-01-25T13:46:55;22.15;;;13.38;;
21943;SDS011;11136;48.778;9.126;2023-01-25T13:49:24;24.75;;;14.63;;
21943;SDS011;11136;48.778;9.126;2023-01-25T13:51:51;24.52;;;13.63;;
21943;SDS011;11136;48.778;9.126;2023-01-25T13:54:17;28.02;;;14.68;;
21943;SDS011;11136;48.778;9.126;2023-01-25T13:56:44;22.70;;;13.73;;
21943;SDS011;11136;48.778;9.126;2023-01-25T13:59:22;25.75;;;14.75;;
21943;SDS011;11136;48.778;9.126;2023-01-25T14:01:48;22.80;;;14.00;;
21943;SDS011;11136;48.778;9.126;2023-01-25T14:04:16;23.65;;;14.57;;
21943;SDS011;11136;48.778;9.126;2023-01-25T14:06:42;24.27;;;14.63;;
21943;SDS011;11136;48.778;9.126;2023-01-25T14:09:10;26.33;;;15.70;;
21943;SDS011;11136;48.778;9.126;2023-01-25T14:11:42;21.65;;;14.40;;
21943;SDS011;11136;48.778;9.126;2023-01-25T14:17:02;24.33;;;15.15;;
21943;SDS011;11136;48.778;9.126;2023-01-25T14:19:29;24.60;;;14.43;;
21943;SDS011;11136;48.778;9.126;2023-01-25T14:24:40;29.88;;;16.48;;
21943;SDS011;11136;48.778;9.126;2023-01-25T14:27:09;24.95;;;14.23;;
21943;SDS011;11136;48.778;9.126;2023-01-25T14:29:36;22.23;;;13.43;;
21943;SDS011;11136;48.778;9.126;2023-01-25T14:32:02;22.25;;;14.55;;
21943;SDS011;11136;48.778;9.126;2023-01-25T14:34:28;24.10;;;14.38;;
21943;SDS011;11136;48.778;9.126;2023-01-25T14:37:04;25.58;;;15.63;;
21943;SDS011;11136;48.778;9.126;2023-01-25T14:39:31;25.23;;;15.63;;
21943;SDS011;11136;48.778;9.126;2023-01-25T14:41:57;29.48;;;16.75;;
21943;SDS011;11136;48.778;9.126;2023-01-25T14:44:24;27.92;;;15.73;;
21943;SDS011;11136;48.778;9.126;2023-01-25T14:47:18;24.48;;;15.35;;
21943;SDS011;11136;48.778;9.126;2023-01-25T14:49:36;27.15;;;15.18;;
21943;SDS011;11136;48.778;9.126;2023-01-25T14:55:11;28.00;;;16.45;;
21943;SDS011;11136;48.778;9.126;2023-01-25T14:59:49;26.33;;;16.05;;
21943;SDS011;11136;48.778;9.126;2023-01-25T15:04:50;28.23;;;16.33;;
21943;SDS011;11136;48.778;9.126;2023-01-25T15:07:33;26.65;;;15.25;;
21943;SDS011;11136;48.778;9.126;2023-01-25T15:10:03;29.00;;;15.77;;
21943;SDS011;11136;48.778;9.126;2023-01-25T15:12:39;27.60;;;15.77;;
21943;SDS011;11136;48.778;9.126;2023-01-25T15:15:18;28.15;;;15.07;;
21943;SDS011;11136;48.778;9.126;2023-01-25T15:17:46;31.23;;;15.75;;
21943;SDS011;11136;48.778;9.126;2023-01-25T15:20:29;25.13;;;15.48;;
21943;SDS011;11136;48.778;9.126;2023-01-25T15:22:56;43.58;;;17.35;;
21943;SDS011;11136;48.778;9.126;2023-01-25T15:25:23;27.17;;;16.63;;
21943;SDS011;11136;48.778;9.126;2023-01-25T15:27:49;30.23;;;16.15;;
21943;SDS011;11136;48.778;9.126;2023-01-25T15:30:16;27.27;;;16.77;;
21943;SDS011;11136;48.778;9.126;2023-01-25T15:32:43;29.77;;;17.75;;
21943;SDS011;11136;48.778;9.126;2023-01-25T15:35:16;31.23;;;17.80;;
21943;SDS011;11136;48.778;9.126;2023-01-25T15:37:46;26.45;;;15.43;;
21943;SDS011;11136;48.778;9.126;2023-01-25T15:40:12;27.83;;;16.33;;
21943;SDS011;11136;48.778;9.126;2023-01-25T15:42:38;27.95;;;15.98;;
21943;SDS011;11136;48.778;9.126;2023-01-25T15:45:05;25.65;;;15.05;;
21943;SDS011;11136;48.778;9.126;2023-01-25T15:47:33;23.02;;;14.95;;
21943;SDS011;11136;48.778;9.126;2023-01-25T15:49:59;27.38;;;16.27;;
21943;SDS011;11136;48.778;9.126;2023-01-25T15:52:25;30.48;;;18.33;;
21943;SDS011;11136;48.778;9.126;2023-01-25T15:54:51;28.42;;;16.73;;
21943;SDS011;11136;48.778;9.126;2023-01-25T15:57:27;27.50;;;15.18;;
21943;SDS011;11136;48.778;9.126;2023-01-25T15:59:54;30.15;;;17.42;;
21943;SDS011;11136;48.778;9.126;2023-01-25T16:02:20;29.35;;;14.85;;
21943;SDS011;11136;48.778;9.126;2023-01-25T16:04:48;27.77;;;14.93;;
21943;SDS011;11136;48.778;9.126;2023-01-25T16:07:24;24.88;;;15.23;;